In Rescue
 
Open Full Screen Window  High Contrast Mode
Wind Gusting 20 knots
11
May 19, 2019 12:51 PM EDT
Present Weather: Light Rain
Weather Information
Wind Direction
  090 °
Wind Speed
  11 kt (13 mph)
Wind Gust
  20 kt (23 mph)
Altimeter
29.74 in
Visibility
2 1/2 SM
Temperature
06° C
43° F
Dewpoint
06° C
43° F
Humidity
100%
1hr Rain Fall
00.08 in.
24hr Rain Fall
00.71 in.
Sky Condition
Overcast @ 200 ft
LIFR

METAR KMCD 191651Z AUTO 09011G20KT 2 1/2SM -RA OVC002 06/06 A2974 RMK AO2 P0008 T00600060

FAA Disclaimer: The data displayed is for advisory purposes only and is not to be used for flight planning or operations.